createdAt,value
2022-08-08T00:01:08.697Z,55.27
2022-08-08T00:03:55.696Z,55.39
2022-08-08T00:06:42.033Z,55.76
2022-08-08T00:09:16.176Z,56.14
2022-08-08T00:12:07.801Z,56.49
2022-08-08T00:14:48.094Z,56.19
2022-08-08T00:18:01.581Z,56.55
2022-08-08T00:20:32.358Z,56.69
2022-08-08T00:23:06.105Z,56.79
2022-08-08T00:25:46.650Z,56.95
2022-08-08T00:28:35.366Z,57.35
2022-08-08T00:32:21.176Z,57.12
2022-08-08T00:34:27.003Z,57.26
2022-08-08T00:37:03.709Z,57.08
2022-08-08T00:41:10.077Z,57.36
2022-08-08T00:43:11.845Z,57.35
2022-08-08T00:46:05.120Z,57.53
2022-08-08T00:49:05.558Z,57.67
2022-08-08T00:52:19.479Z,57.88
2022-08-08T00:55:16.724Z,58.03
2022-08-08T00:58:30.712Z,58.26
2022-08-08T01:01:12.941Z,58.05
2022-08-08T01:04:20.235Z,58.75
2022-08-08T01:07:34.399Z,58.80
2022-08-08T01:10:49.877Z,59.19
2022-08-08T01:13:53.035Z,59.31
2022-08-08T01:17:10.089Z,59.61
2022-08-08T01:20:03.877Z,59.63
2022-08-08T01:23:06.588Z,59.93
2022-08-08T01:26:13.311Z,59.80
2022-08-08T01:29:35.507Z,60.25
2022-08-08T01:32:51.919Z,60.50
2022-08-08T01:35:53.427Z,60.76
2022-08-08T01:39:00.898Z,61.21
2022-08-08T01:41:43.854Z,61.00
2022-08-08T01:44:32.073Z,61.41
2022-08-08T01:48:14.052Z,61.59
2022-08-08T01:50:11.534Z,62.11
2022-08-08T01:55:17.847Z,62.20
2022-08-08T01:56:28.503Z,62.04
2022-08-08T01:58:56.012Z,62.09
2022-08-08T02:02:00.153Z,62.10
2022-08-08T02:04:25.814Z,62.19
2022-08-08T02:07:01.873Z,62.20
2022-08-08T02:10:04.357Z,62.40
2022-08-08T02:12:51.248Z,62.95
2022-08-08T02:15:30.295Z,63.02
2022-08-08T02:18:10.698Z,63.64
2022-08-08T02:21:13.466Z,63.77
2022-08-08T02:23:49.266Z,63.76
2022-08-08T02:26:29.947Z,63.88
2022-08-08T02:29:18.709Z,63.92
2022-08-08T02:32:10.441Z,64.50
2022-08-08T02:35:18.318Z,64.93
2022-08-08T02:38:25.612Z,65.67
2022-08-08T02:41:58.470Z,65.76
2022-08-08T02:44:57.758Z,66.30
2022-08-08T02:48:01.907Z,66.28
2022-08-08T02:51:11.957Z,66.63
2022-08-08T02:54:20.907Z,67.21
2022-08-08T02:57:25.276Z,67.14
2022-08-08T03:00:31.843Z,67.49
2022-08-08T03:05:01.423Z,67.30
2022-08-08T03:06:59.043Z,67.14
2022-08-08T03:10:33.535Z,68.13
2022-08-08T03:15:56.572Z,68.16
2022-08-08T03:16:50.729Z,68.76
2022-08-08T03:19:40.304Z,68.50
2022-08-08T03:22:38.871Z,68.58
2022-08-08T03:25:14.792Z,68.83
2022-08-08T03:27:56.439Z,68.85
2022-08-08T03:30:25.722Z,69.13
2022-08-08T03:33:54.968Z,69.37
2022-08-08T03:35:58.927Z,69.94
2022-08-08T03:38:55.945Z,69.67
2022-08-08T03:42:26.624Z,70.22
2022-08-08T03:44:04.082Z,70.16
2022-08-08T03:46:32.585Z,69.95
2022-08-08T03:49:10.117Z,70.34
2022-08-08T03:51:53.744Z,70.58
2022-08-08T03:54:41.125Z,70.46
2022-08-08T03:58:33.348Z,70.11
2022-08-08T04:00:07.835Z,70.22
2022-08-08T04:02:51.653Z,70.04
2022-08-08T04:05:28.472Z,69.85
2022-08-08T04:07:57.974Z,70.19
2022-08-08T04:10:32.239Z,70.00
2022-08-08T04:13:03.903Z,70.10
2022-08-08T04:15:54.846Z,69.91
2022-08-08T04:18:31.643Z,69.70
2022-08-08T04:20:59.968Z,69.88
2022-08-08T04:23:33.356Z,70.28
2022-08-08T04:26:16.707Z,70.42
2022-08-08T04:28:48.731Z,70.64
2022-08-08T04:31:57.153Z,70.66
2022-08-08T04:34:10.229Z,70.47
2022-08-08T04:36:38.121Z,70.14
2022-08-08T04:40:03.668Z,70.50
2022-08-08T04:41:53.757Z,70.50
2022-08-08T04:44:26.721Z,70.57
2022-08-08T04:46:55.090Z,70.26
2022-08-08T04:49:28.610Z,70.35
2022-08-08T04:52:13.730Z,70.45
2022-08-08T04:54:43.242Z,70.69
2022-08-08T04:57:18.371Z,70.78
2022-08-08T04:59:48.790Z,70.29
2022-08-08T05:02:20.366Z,70.40
2022-08-08T05:04:56.435Z,70.96
2022-08-08T05:07:35.308Z,70.34
2022-08-08T05:10:12.360Z,70.38
2022-08-08T05:12:53.467Z,70.51
2022-08-08T05:16:49.345Z,70.41
2022-08-08T05:18:18.436Z,70.10
2022-08-08T05:20:50.251Z,69.93
2022-08-08T05:23:20.851Z,69.47
2022-08-08T05:25:49.829Z,69.30
2022-08-08T05:28:41.517Z,69.08
2022-08-08T05:31:19.335Z,69.34
2022-08-08T05:33:54.762Z,69.09
2022-08-08T05:36:28.073Z,68.74
2022-08-08T05:38:58.903Z,68.65
2022-08-08T05:41:27.894Z,68.34
2022-08-08T05:44:04.931Z,67.75
2022-08-08T05:46:36.516Z,67.66
2022-08-08T05:49:10.913Z,67.44
2022-08-08T05:51:48.877Z,67.37
2022-08-08T05:54:28.214Z,67.24
2022-08-08T05:57:12.486Z,67.09
2022-08-08T05:59:59.887Z,66.67
2022-08-08T06:02:52.938Z,66.16
2022-08-08T06:05:33.038Z,66.37
2022-08-08T06:08:09.888Z,65.95
2022-08-08T06:10:53.987Z,65.70
2022-08-08T06:13:23.489Z,65.28
2022-08-08T06:15:56.032Z,65.17
2022-08-08T06:18:26.802Z,65.14
2022-08-08T06:20:57.166Z,65.17
2022-08-08T06:23:52.548Z,64.73
2022-08-08T06:26:38.539Z,64.32
2022-08-08T06:29:26.291Z,64.47
2022-08-08T06:32:09.803Z,64.62
2022-08-08T06:34:56.324Z,64.49
2022-08-08T06:37:37.949Z,64.32
2022-08-08T06:40:15.924Z,63.68
2022-08-08T06:42:56.496Z,63.61
2022-08-08T06:45:25.046Z,62.95
2022-08-08T06:48:01.003Z,62.71
2022-08-08T06:50:33.900Z,62.08
2022-08-08T06:53:09.734Z,61.86
2022-08-08T06:55:43.343Z,61.83
2022-08-08T06:58:11.173Z,61.89
2022-08-08T07:00:41.168Z,61.68
2022-08-08T07:03:19.631Z,61.13
2022-08-08T07:06:05.546Z,61.26
2022-08-08T07:08:39.782Z,61.21
2022-08-08T07:11:22.207Z,61.34
2022-08-08T07:14:00.080Z,60.71
2022-08-08T07:16:51.246Z,60.44
2022-08-08T07:19:27.914Z,60.40
2022-08-08T07:22:11.867Z,60.27
2022-08-08T07:24:52.976Z,59.75
2022-08-08T07:27:27.891Z,59.69
2022-08-08T07:30:21.298Z,59.59
2022-08-08T07:32:54.158Z,59.43
2022-08-08T07:35:23.393Z,58.61
2022-08-08T07:38:04.894Z,58.94
2022-08-08T07:40:45.419Z,57.57
2022-08-08T07:43:14.458Z,57.88
2022-08-08T07:46:05.401Z,57.84
2022-08-08T07:48:32.740Z,57.81
2022-08-08T07:51:02.646Z,57.90
2022-08-08T07:54:01.778Z,57.75
2022-08-08T07:56:35.463Z,57.82
2022-08-08T07:59:04.595Z,57.85
2022-08-08T08:02:36.962Z,57.35
2022-08-08T08:04:30.578Z,57.19
2022-08-08T08:07:00.470Z,56.91
2022-08-08T08:09:37.879Z,56.42
2022-08-08T08:12:08.327Z,56.70
2022-08-08T08:14:50.674Z,56.45
2022-08-08T08:17:20.922Z,56.25
2022-08-08T08:19:50.713Z,56.21
2022-08-08T08:22:31.210Z,56.16
2022-08-08T08:25:07.569Z,55.39
2022-08-08T08:27:36.717Z,55.37
2022-08-08T08:30:07.219Z,55.28
2022-08-08T08:32:36.621Z,54.80
2022-08-08T08:35:09.667Z,54.33
2022-08-08T08:37:59.264Z,54.35
2022-08-08T08:40:27.311Z,53.83
2022-08-08T08:42:56.576Z,52.92
2022-08-08T08:45:26.259Z,52.53
2022-08-08T08:47:58.669Z,52.87
2022-08-08T08:50:34.941Z,52.42
2022-08-08T08:53:28.387Z,52.35
2022-08-08T08:56:01.212Z,52.17
2022-08-08T08:58:33.198Z,52.00
2022-08-08T09:01:09.142Z,51.08
2022-08-08T09:03:46.094Z,51.76
2022-08-08T09:06:28.712Z,51.55
2022-08-08T09:09:07.493Z,51.35
2022-08-08T09:12:01.644Z,50.96
2022-08-08T09:14:34.592Z,50.38
2022-08-08T09:17:11.486Z,50.14
2022-08-08T09:21:57.608Z,49.90
2022-08-08T09:22:31.348Z,49.11
2022-08-08T09:24:59.153Z,49.16
2022-08-08T09:27:56.007Z,49.13
2022-08-08T09:30:22.222Z,48.90
2022-08-08T09:33:54.396Z,48.96
2022-08-08T09:35:49.920Z,48.51
2022-08-08T09:38:32.127Z,48.34
2022-08-08T09:41:06.106Z,48.17
2022-08-08T09:44:06.128Z,48.06
2022-08-08T09:46:36.022Z,47.67
2022-08-08T09:49:41.468Z,47.48
2022-08-08T09:52:06.879Z,47.38
2022-08-08T09:54:45.689Z,46.89
2022-08-08T09:57:27.407Z,46.83
2022-08-08T10:00:34.115Z,46.94
2022-08-08T10:02:57.534Z,45.85
2022-08-08T10:05:26.225Z,46.69
2022-08-08T10:08:01.091Z,46.61
2022-08-08T10:10:31.759Z,46.36
2022-08-08T10:13:14.110Z,46.45
2022-08-08T10:16:00.803Z,46.47
2022-08-08T10:18:31.427Z,46.67
2022-08-08T10:21:23.152Z,46.98
2022-08-08T10:23:58.625Z,46.44
2022-08-08T10:26:58.587Z,46.26
2022-08-08T10:29:24.898Z,44.71
2022-08-08T10:32:16.793Z,45.90
2022-08-08T10:34:57.151Z,45.25
2022-08-08T10:37:30.177Z,45.14
2022-08-08T10:40:02.469Z,45.61
2022-08-08T10:42:37.341Z,44.98
2022-08-08T10:45:07.974Z,45.25
2022-08-08T10:47:43.802Z,45.15
2022-08-08T10:50:15.534Z,44.97
2022-08-08T10:52:44.682Z,44.50
2022-08-08T10:55:15.648Z,44.45
2022-08-08T10:58:05.746Z,44.39
2022-08-08T11:00:48.321Z,43.92
2022-08-08T11:03:52.458Z,44.05
2022-08-08T11:06:12.639Z,43.50
2022-08-08T11:08:53.056Z,43.15
2022-08-08T11:11:32.016Z,43.67
2022-08-08T11:14:12.300Z,43.88
2022-08-08T11:16:46.658Z,43.51
2022-08-08T11:19:18.035Z,42.46
2022-08-08T11:21:55.884Z,42.63
2022-08-08T11:24:27.234Z,42.32
2022-08-08T11:27:00.775Z,42.92
2022-08-08T11:29:51.408Z,42.21
2022-08-08T11:32:22.156Z,41.94
2022-08-08T11:35:24.506Z,41.51
2022-08-08T11:38:36.801Z,41.52
2022-08-08T11:40:42.825Z,40.75
2022-08-08T11:43:11.796Z,41.68
2022-08-08T11:46:06.896Z,41.65
2022-08-08T11:48:32.596Z,41.90
2022-08-08T11:51:38.113Z,41.31
2022-08-08T11:53:58.871Z,41.87
2022-08-08T11:56:34.660Z,41.36
2022-08-08T11:59:10.139Z,41.72
2022-08-08T12:01:38.427Z,40.81
2022-08-08T12:04:07.428Z,40.89
2022-08-08T12:06:36.718Z,40.75
2022-08-08T12:09:07.923Z,40.60
2022-08-08T12:11:40.771Z,40.00
2022-08-08T12:14:10.975Z,40.35
2022-08-08T12:16:49.464Z,40.31
2022-08-08T12:19:31.042Z,41.14
2022-08-08T12:22:13.334Z,40.13
2022-08-08T12:24:54.253Z,40.50
2022-08-08T12:27:26.459Z,40.53
2022-08-08T12:29:57.594Z,38.95
2022-08-08T12:32:26.992Z,38.80
2022-08-08T12:35:04.564Z,38.63
2022-08-08T12:37:47.779Z,39.49
2022-08-08T12:40:23.504Z,39.47
2022-08-08T12:42:53.741Z,38.43
2022-08-08T12:45:59.517Z,38.94
2022-08-08T12:48:38.031Z,38.65
2022-08-08T12:51:11.844Z,38.18
2022-08-08T12:53:59.197Z,37.98
2022-08-08T12:56:34.275Z,38.27
2022-08-08T12:59:02.175Z,38.18
2022-08-08T13:01:37.841Z,38.41
2022-08-08T13:04:19.385Z,37.85
2022-08-08T13:06:58.707Z,37.91
2022-08-08T13:10:04.443Z,37.37
2022-08-08T13:12:30.074Z,38.26
2022-08-08T13:15:09.338Z,36.95
2022-08-08T13:18:08.618Z,37.66
2022-08-08T13:20:27.103Z,37.50
2022-08-08T13:23:30.946Z,37.15
2022-08-08T13:25:50.267Z,37.43
2022-08-08T13:28:32.417Z,36.85
2022-08-08T13:31:01.847Z,36.53
2022-08-08T13:33:42.629Z,36.21
2022-08-08T13:36:11.726Z,36.55
2022-08-08T13:38:40.063Z,36.27
2022-08-08T13:41:16.360Z,36.23
2022-08-08T13:43:46.955Z,35.49
2022-08-08T13:46:26.995Z,35.72
2022-08-08T13:49:11.282Z,35.82
2022-08-08T13:51:54.412Z,35.49
2022-08-08T13:54:29.434Z,36.00
2022-08-08T13:57:12.322Z,36.16
2022-08-08T13:59:44.443Z,36.29
2022-08-08T14:02:20.805Z,37.32
2022-08-08T14:04:57.485Z,36.71
2022-08-08T14:07:35.600Z,36.68
2022-08-08T14:10:16.922Z,37.07
2022-08-08T14:12:47.798Z,37.61
2022-08-08T14:15:31.634Z,37.71
2022-08-08T14:18:36.772Z,37.69
2022-08-08T14:21:03.719Z,37.83
2022-08-08T14:24:06.502Z,37.74
2022-08-08T14:26:33.360Z,37.01
2022-08-08T14:29:05.920Z,37.39
2022-08-08T14:32:11.040Z,36.85
2022-08-08T14:34:37.392Z,36.75
2022-08-08T14:37:42.659Z,36.53
2022-08-08T14:40:22.152Z,37.01
2022-08-08T14:42:54.752Z,36.83
2022-08-08T14:45:28.907Z,36.95
2022-08-08T14:48:03.409Z,37.43
2022-08-08T14:50:37.913Z,37.12
2022-08-08T14:53:10.831Z,37.10
2022-08-08T14:55:42.921Z,37.52
2022-08-08T14:58:16.198Z,37.50
2022-08-08T15:00:49.783Z,37.53
2022-08-08T15:03:18.486Z,37.33
2022-08-08T15:05:54.095Z,37.65
2022-08-08T15:08:33.463Z,37.78
2022-08-08T15:11:04.234Z,38.16
2022-08-08T15:13:39.987Z,38.08
2022-08-08T15:16:12.004Z,37.78
2022-08-08T15:18:50.048Z,38.17
2022-08-08T15:21:20.773Z,37.95
2022-08-08T15:23:51.341Z,38.03
2022-08-08T15:26:20.366Z,38.50
2022-08-08T15:28:53.366Z,38.67
2022-08-08T15:31:25.874Z,38.85
2022-08-08T15:34:29.730Z,38.79
2022-08-08T15:37:01.801Z,39.13
2022-08-08T15:39:38.270Z,38.87
2022-08-08T15:42:10.151Z,39.14
2022-08-08T15:44:42.158Z,39.12
2022-08-08T15:47:15.908Z,39.29
2022-08-08T15:49:48.629Z,39.07
2022-08-08T15:52:17.803Z,38.95
2022-08-08T15:54:51.501Z,38.58
2022-08-08T15:57:21.364Z,38.85
2022-08-08T16:00:06.656Z,38.88
2022-08-08T16:02:50.270Z,39.08
2022-08-08T16:05:21.189Z,39.07
2022-08-08T16:07:52.349Z,38.76
2022-08-08T16:13:05.149Z,39.11
2022-08-08T16:13:28.630Z,39.14
2022-08-08T16:15:59.150Z,39.20
2022-08-08T16:18:29.285Z,39.29
2022-08-08T16:21:00.318Z,39.61
2022-08-08T16:23:31.464Z,39.74
2022-08-08T16:26:05.023Z,39.41
2022-08-08T16:28:41.543Z,39.65
2022-08-08T16:31:09.774Z,39.87
2022-08-08T16:33:40.198Z,40.12
2022-08-08T16:36:09.593Z,40.10
2022-08-08T16:38:44.345Z,39.82
2022-08-08T16:41:20.185Z,39.94
2022-08-08T16:43:51.662Z,40.18
2022-08-08T16:46:36.257Z,40.03
2022-08-08T16:49:09.328Z,40.14
2022-08-08T16:55:03.606Z,40.16
2022-08-08T16:55:06.673Z,40.15
2022-08-08T16:57:43.556Z,40.05
2022-08-08T17:00:08.864Z,40.24
2022-08-08T17:02:39.961Z,40.39
2022-08-08T17:05:12.905Z,40.46
2022-08-08T17:07:42.354Z,40.79
2022-08-08T17:10:11.574Z,40.77
2022-08-08T17:12:41.597Z,40.87
2022-08-08T17:15:20.096Z,40.91
2022-08-08T17:18:01.112Z,41.15
2022-08-08T17:20:33.569Z,41.08
2022-08-08T17:23:17.959Z,41.18
2022-08-08T17:25:54.110Z,41.12
2022-08-08T17:28:28.875Z,41.39
2022-08-08T17:31:44.007Z,41.33
2022-08-08T17:34:48.603Z,41.40
2022-08-08T17:37:00.540Z,41.67
2022-08-08T17:40:03.495Z,41.46
2022-08-08T17:42:18.065Z,41.55
2022-08-08T17:44:46.583Z,41.69
2022-08-08T17:47:27.377Z,41.65
2022-08-08T17:50:01.279Z,41.67
2022-08-08T17:52:34.091Z,41.94
2022-08-08T17:55:05.502Z,41.92
2022-08-08T17:57:51.089Z,41.79
2022-08-08T18:00:26.203Z,41.55
2022-08-08T18:03:09.131Z,41.98
2022-08-08T18:05:49.615Z,42.08
2022-08-08T18:08:25.088Z,42.19
2022-08-08T18:11:08.419Z,42.19
2022-08-08T18:13:42.130Z,42.38
2022-08-08T18:16:11.322Z,42.07
2022-08-08T18:18:45.453Z,41.90
2022-08-08T18:21:35.428Z,42.13
2022-08-08T18:24:17.533Z,42.33
2022-08-08T18:26:55.042Z,42.31
2022-08-08T18:29:29.450Z,42.39
2022-08-08T18:32:03.522Z,42.26
2022-08-08T18:34:32.959Z,42.33
2022-08-08T18:37:04.826Z,42.51
2022-08-08T18:39:36.606Z,42.36
2022-08-08T18:42:12.999Z,42.44
2022-08-08T18:44:42.449Z,42.48
2022-08-08T18:47:24.112Z,42.68
2022-08-08T18:49:58.292Z,42.75
2022-08-08T18:52:33.835Z,42.92
2022-08-08T18:55:10.374Z,43.16
2022-08-08T18:57:43.380Z,42.99
2022-08-08T19:00:16.308Z,43.12
2022-08-08T19:02:56.050Z,43.36
2022-08-08T19:05:31.860Z,43.19
2022-08-08T19:08:25.690Z,43.37
2022-08-08T19:10:59.137Z,43.77
2022-08-08T19:13:53.756Z,43.52
2022-08-08T19:16:19.511Z,43.89
2022-08-08T19:18:53.097Z,44.04
2022-08-08T19:21:30.850Z,44.04
2022-08-08T19:24:05.503Z,44.45
2022-08-08T19:26:37.373Z,44.31
2022-08-08T19:29:05.886Z,44.54
2022-08-08T19:31:35.787Z,44.57
2022-08-08T19:34:35.715Z,44.69
2022-08-08T19:36:53.703Z,45.05
2022-08-08T19:39:23.528Z,44.74
2022-08-08T19:41:52.834Z,45.00
2022-08-08T19:44:26.798Z,45.23
2022-08-08T19:47:08.546Z,45.31
2022-08-08T19:49:38.089Z,45.18
2022-08-08T19:52:07.232Z,45.60
2022-08-08T19:54:38.625Z,45.91
2022-08-08T19:57:08.927Z,45.54
2022-08-08T19:59:39.304Z,45.91
2022-08-08T20:02:07.718Z,45.99
2022-08-08T20:04:39.466Z,46.48
2022-08-08T20:08:28.826Z,46.21
2022-08-08T20:09:58.474Z,46.50
2022-08-08T20:12:32.141Z,46.90
2022-08-08T20:15:14.655Z,47.02
2022-08-08T20:17:46.447Z,47.33
2022-08-08T20:20:18.962Z,47.39
2022-08-08T20:22:54.100Z,47.75
2022-08-08T20:25:24.841Z,48.28
2022-08-08T20:28:05.712Z,48.50
2022-08-08T20:30:52.846Z,48.60
2022-08-08T20:35:56.751Z,49.09
2022-08-08T20:38:32.395Z,49.18
2022-08-08T20:41:05.738Z,49.57
2022-08-08T20:43:49.240Z,49.78
2022-08-08T20:46:20.227Z,50.04
2022-08-08T20:48:48.303Z,50.38
2022-08-08T20:51:16.097Z,50.07
2022-08-08T20:53:59.233Z,50.22
2022-08-08T20:56:35.446Z,50.90
2022-08-08T20:59:21.077Z,51.09
2022-08-08T21:02:06.771Z,50.91
2022-08-08T21:04:36.777Z,51.41
2022-08-08T21:07:08.181Z,51.27
2022-08-08T21:09:48.449Z,51.54
2022-08-08T21:12:24.874Z,51.96
2022-08-08T21:15:07.149Z,52.04
2022-08-08T21:17:37.659Z,52.53
2022-08-08T21:20:07.578Z,52.54
2022-08-08T21:22:35.484Z,52.56
2022-08-08T21:25:10.803Z,52.79
2022-08-08T21:28:09.784Z,52.69
2022-08-08T21:30:30.736Z,53.11
2022-08-08T21:32:58.956Z,53.85
2022-08-08T21:36:14.974Z,53.43
2022-08-08T21:38:16.746Z,53.88
2022-08-08T21:40:55.964Z,54.11
2022-08-08T21:43:25.928Z,54.29
2022-08-08T21:48:02.282Z,54.58
2022-08-08T21:48:52.520Z,54.68
2022-08-08T21:54:17.107Z,54.81
2022-08-08T21:54:30.824Z,54.69
2022-08-08T21:56:59.144Z,54.92
2022-08-08T21:59:28.302Z,54.87
2022-08-08T22:02:13.171Z,55.09
2022-08-08T22:04:43.913Z,55.43
2022-08-08T22:07:11.846Z,55.31
2022-08-08T22:09:43.753Z,55.55
2022-08-08T22:12:16.803Z,55.66
2022-08-08T22:14:47.208Z,56.09
2022-08-08T22:17:17.070Z,56.02
2022-08-08T22:20:11.931Z,56.13
2022-08-08T22:22:38.195Z,56.20
2022-08-08T22:25:17.743Z,56.21
2022-08-08T22:28:02.550Z,56.47
2022-08-08T22:30:41.568Z,56.45
2022-08-08T22:34:10.390Z,56.65
2022-08-08T22:36:05.636Z,56.90
2022-08-08T22:38:48.067Z,57.03
2022-08-08T22:41:21.541Z,57.09
2022-08-08T22:44:02.036Z,57.50
2022-08-08T22:46:33.028Z,57.54
2022-08-08T22:49:02.753Z,57.44
2022-08-08T22:51:34.757Z,57.32
2022-08-08T22:54:32.091Z,57.24
2022-08-08T22:56:58.178Z,57.39
2022-08-08T22:59:26.434Z,57.77
2022-08-08T23:02:13.092Z,57.82
2022-08-08T23:04:55.974Z,58.02
2022-08-08T23:07:24.594Z,58.56
2022-08-08T23:10:12.478Z,59.01
2022-08-08T23:12:47.893Z,59.09
2022-08-08T23:16:39.188Z,58.79
2022-08-08T23:18:11.837Z,59.05
2022-08-08T23:20:43.412Z,59.81
2022-08-08T23:23:12.061Z,59.67
2022-08-08T23:25:47.765Z,59.75
2022-08-08T23:28:17.721Z,59.40
2022-08-08T23:30:46.124Z,59.55
2022-08-08T23:33:19.041Z,59.49
2022-08-08T23:36:07.470Z,59.55
2022-08-08T23:38:44.334Z,59.51
2022-08-08T23:41:22.858Z,59.52
2022-08-08T23:43:54.222Z,59.75
2022-08-08T23:49:01.120Z,59.80
2022-08-08T23:49:18.178Z,60.58
2022-08-08T23:52:06.125Z,60.54
2022-08-08T23:54:43.849Z,60.65
2022-08-08T23:57:26.718Z,60.78
